sensor_id;sensor_type;location;lat;lon;timestamp;pressure;altitude;pressure_sealevel;temperature;humidity
66945;BME280;53853;51.982;5.928;2023-09-30T00:00:27;102379.38;;;13.95;81.04
66945;BME280;53853;51.982;5.928;2023-09-30T00:02:59;102389.13;;;13.96;80.41
66945;BME280;53853;51.982;5.928;2023-09-30T00:05:30;102398.13;;;13.95;80.89
66945;BME280;53853;51.982;5.928;2023-09-30T00:08:00;102398.13;;;13.95;81.32
66945;BME280;53853;51.982;5.928;2023-09-30T00:10:30;102401.53;;;13.97;81.68
66945;BME280;53853;51.982;5.928;2023-09-30T00:13:02;102383.34;;;14.01;80.96
66945;BME280;53853;51.982;5.928;2023-09-30T00:15:33;102379.81;;;14.00;81.21
66945;BME280;53853;51.982;5.928;2023-09-30T00:18:04;102392.25;;;14.01;81.13
66945;BME280;53853;51.982;5.928;2023-09-30T00:20:34;102406.47;;;14.02;80.77
66945;BME280;53853;51.982;5.928;2023-09-30T00:23:04;102407.47;;;14.01;80.95
66945;BME280;53853;51.982;5.928;2023-09-30T00:25:34;102406.63;;;14.00;81.45
66945;BME280;53853;51.982;5.928;2023-09-30T00:28:07;102407.47;;;14.01;81.59
66945;BME280;53853;51.982;5.928;2023-09-30T00:30:37;102416.22;;;14.03;81.52
66945;BME280;53853;51.982;5.928;2023-09-30T00:33:07;102401.00;;;14.03;81.59
66945;BME280;53853;51.982;5.928;2023-09-30T00:35:37;102405.50;;;14.03;81.11
66945;BME280;53853;51.982;5.928;2023-09-30T00:38:07;102394.91;;;14.01;80.88
66945;BME280;53853;51.982;5.928;2023-09-30T00:40:37;102396.16;;;13.97;81.07
66945;BME280;53853;51.982;5.928;2023-09-30T00:43:18;102402.66;;;13.94;81.11
66945;BME280;53853;51.982;5.928;2023-09-30T00:45:49;102418.00;;;13.92;81.62
66945;BME280;53853;51.982;5.928;2023-09-30T00:48:21;102419.97;;;13.90;81.93
66945;BME280;53853;51.982;5.928;2023-09-30T00:50:52;102410.25;;;13.89;82.21
66945;BME280;53853;51.982;5.928;2023-09-30T00:53:22;102417.28;;;13.90;82.38
66945;BME280;53853;51.982;5.928;2023-09-30T00:55:53;102426.91;;;13.93;82.22
66945;BME280;53853;51.982;5.928;2023-09-30T00:58:26;102419.56;;;13.95;82.20
66945;BME280;53853;51.982;5.928;2023-09-30T01:00:58;102421.28;;;13.96;81.63
66945;BME280;53853;51.982;5.928;2023-09-30T01:03:30;102433.09;;;13.93;81.72
66945;BME280;53853;51.982;5.928;2023-09-30T01:06:01;102433.38;;;13.90;81.68
66945;BME280;53853;51.982;5.928;2023-09-30T01:08:32;102437.44;;;13.85;81.93
66945;BME280;53853;51.982;5.928;2023-09-30T01:11:02;102432.34;;;13.82;81.86
66945;BME280;53853;51.982;5.928;2023-09-30T01:13:36;102438.81;;;13.79;81.80
66945;BME280;53853;51.982;5.928;2023-09-30T01:16:06;102426.25;;;13.80;82.03
66945;BME280;53853;51.982;5.928;2023-09-30T01:18:37;102429.66;;;13.82;82.08
66945;BME280;53853;51.982;5.928;2023-09-30T01:21:10;102427.00;;;13.82;82.16
66945;BME280;53853;51.982;5.928;2023-09-30T01:23:44;102433.19;;;13.82;82.05
66945;BME280;53853;51.982;5.928;2023-09-30T01:26:14;102434.41;;;13.78;81.77
66945;BME280;53853;51.982;5.928;2023-09-30T01:28:45;102435.69;;;13.74;81.60
66945;BME280;53853;51.982;5.928;2023-09-30T01:31:15;102436.66;;;13.73;81.41
66945;BME280;53853;51.982;5.928;2023-09-30T01:33:45;102441.44;;;13.69;81.76
66945;BME280;53853;51.982;5.928;2023-09-30T01:36:15;102444.38;;;13.66;81.92
66945;BME280;53853;51.982;5.928;2023-09-30T01:38:48;102448.75;;;13.67;82.25
66945;BME280;53853;51.982;5.928;2023-09-30T01:41:18;102454.00;;;13.69;82.27
66945;BME280;53853;51.982;5.928;2023-09-30T01:43:49;102459.22;;;13.70;82.52
66945;BME280;53853;51.982;5.928;2023-09-30T01:46:19;102463.72;;;13.70;82.58
66945;BME280;53853;51.982;5.928;2023-09-30T01:48:49;102458.22;;;13.71;82.44
66945;BME280;53853;51.982;5.928;2023-09-30T01:51:20;102458.34;;;13.70;82.41
66945;BME280;53853;51.982;5.928;2023-09-30T01:53:53;102445.81;;;13.70;82.58
66945;BME280;53853;51.982;5.928;2023-09-30T01:56:23;102442.84;;;13.73;82.49
66945;BME280;53853;51.982;5.928;2023-09-30T01:58:53;102444.69;;;13.73;82.47
66945;BME280;53853;51.982;5.928;2023-09-30T02:01:23;102450.75;;;13.75;82.31
66945;BME280;53853;51.982;5.928;2023-09-30T02:03:53;102433.97;;;13.73;81.83
66945;BME280;53853;51.982;5.928;2023-09-30T02:06:23;102429.88;;;13.69;81.77
66945;BME280;53853;51.982;5.928;2023-09-30T02:08:55;102430.97;;;13.66;81.73
66945;BME280;53853;51.982;5.928;2023-09-30T02:11:25;102433.91;;;13.63;81.82
66945;BME280;53853;51.982;5.928;2023-09-30T02:13:55;102424.44;;;13.59;81.46
66945;BME280;53853;51.982;5.928;2023-09-30T02:16:25;102422.13;;;13.54;81.72
66945;BME280;53853;51.982;5.928;2023-09-30T02:18:56;102425.94;;;13.52;81.66
66945;BME280;53853;51.982;5.928;2023-09-30T02:21:26;102432.28;;;13.51;81.92
66945;BME280;53853;51.982;5.928;2023-09-30T02:23:58;102443.00;;;13.51;81.97
66945;BME280;53853;51.982;5.928;2023-09-30T02:26:29;102440.44;;;13.49;82.08
66945;BME280;53853;51.982;5.928;2023-09-30T02:28:59;102445.91;;;13.48;81.93
66945;BME280;53853;51.982;5.928;2023-09-30T02:31:29;102445.22;;;13.46;81.71
66945;BME280;53853;51.982;5.928;2023-09-30T02:34:00;102448.03;;;13.44;81.82
66945;BME280;53853;51.982;5.928;2023-09-30T02:36:31;102440.81;;;13.45;81.80
66945;BME280;53853;51.982;5.928;2023-09-30T02:39:05;102440.13;;;13.43;82.05
66945;BME280;53853;51.982;5.928;2023-09-30T02:41:36;102441.81;;;13.44;82.66
66945;BME280;53853;51.982;5.928;2023-09-30T02:44:06;102440.56;;;13.48;82.63
66945;BME280;53853;51.982;5.928;2023-09-30T02:46:36;102438.50;;;13.51;82.74
66945;BME280;53853;51.982;5.928;2023-09-30T02:49:07;102438.22;;;13.54;82.87
66945;BME280;53853;51.982;5.928;2023-09-30T02:51:38;102428.94;;;13.58;82.91
66945;BME280;53853;51.982;5.928;2023-09-30T02:54:10;102426.97;;;13.61;82.72
66945;BME280;53853;51.982;5.928;2023-09-30T02:56:43;102427.47;;;13.66;82.66
66945;BME280;53853;51.982;5.928;2023-09-30T02:59:13;102413.06;;;13.67;82.77
66945;BME280;53853;51.982;5.928;2023-09-30T03:01:45;102423.78;;;13.67;82.85
66945;BME280;53853;51.982;5.928;2023-09-30T03:04:15;102428.16;;;13.68;82.95
66945;BME280;53853;51.982;5.928;2023-09-30T03:06:46;102431.44;;;13.71;82.98
66945;BME280;53853;51.982;5.928;2023-09-30T03:09:19;102435.81;;;13.72;82.64
66945;BME280;53853;51.982;5.928;2023-09-30T03:11:49;102436.66;;;13.73;82.65
66945;BME280;53853;51.982;5.928;2023-09-30T03:14:19;102428.50;;;13.74;82.54
66945;BME280;53853;51.982;5.928;2023-09-30T03:16:49;102426.50;;;13.76;82.71
66945;BME280;53853;51.982;5.928;2023-09-30T03:19:19;102429.94;;;13.79;83.21
66945;BME280;53853;51.982;5.928;2023-09-30T03:21:49;102431.34;;;13.83;83.03
66945;BME280;53853;51.982;5.928;2023-09-30T03:24:22;102436.44;;;13.86;82.77
66945;BME280;53853;51.982;5.928;2023-09-30T03:26:52;102436.19;;;13.89;82.88
66945;BME280;53853;51.982;5.928;2023-09-30T03:29:22;102435.22;;;13.90;82.55
66945;BME280;53853;51.982;5.928;2023-09-30T03:31:53;102427.16;;;13.90;82.61
66945;BME280;53853;51.982;5.928;2023-09-30T03:34:23;102428.88;;;13.91;82.88
66945;BME280;53853;51.982;5.928;2023-09-30T03:36:53;102428.00;;;13.90;82.98
66945;BME280;53853;51.982;5.928;2023-09-30T03:39:28;102419.84;;;13.92;82.91
66945;BME280;53853;51.982;5.928;2023-09-30T03:41:59;102427.88;;;13.92;82.95
66945;BME280;53853;51.982;5.928;2023-09-30T03:44:30;102422.38;;;13.93;83.03
66945;BME280;53853;51.982;5.928;2023-09-30T03:47:00;102425.91;;;13.94;82.84
66945;BME280;53853;51.982;5.928;2023-09-30T03:49:29;102417.88;;;13.94;83.00
66945;BME280;53853;51.982;5.928;2023-09-30T03:51:59;102410.56;;;13.96;83.18
66945;BME280;53853;51.982;5.928;2023-09-30T03:54:33;102414.66;;;14.00;82.93
66945;BME280;53853;51.982;5.928;2023-09-30T03:57:02;102417.34;;;14.00;82.58
66945;BME280;53853;51.982;5.928;2023-09-30T03:59:32;102418.22;;;14.01;82.57
66945;BME280;53853;51.982;5.928;2023-09-30T04:02:02;102419.19;;;14.00;82.67
66945;BME280;53853;51.982;5.928;2023-09-30T04:04:32;102423.84;;;13.98;82.61
66945;BME280;53853;51.982;5.928;2023-09-30T04:07:04;102426.50;;;13.98;82.62
66945;BME280;53853;51.982;5.928;2023-09-30T04:09:39;102421.16;;;13.98;82.45
66945;BME280;53853;51.982;5.928;2023-09-30T04:12:09;102419.56;;;13.95;82.08
66945;BME280;53853;51.982;5.928;2023-09-30T04:14:39;102424.22;;;13.93;82.28
66945;BME280;53853;51.982;5.928;2023-09-30T04:17:09;102425.34;;;13.90;82.54
66945;BME280;53853;51.982;5.928;2023-09-30T04:19:39;102438.88;;;13.89;82.82
66945;BME280;53853;51.982;5.928;2023-09-30T04:22:09;102446.91;;;13.89;83.10
66945;BME280;53853;51.982;5.928;2023-09-30T04:24:41;102435.22;;;13.90;82.88
66945;BME280;53853;51.982;5.928;2023-09-30T04:27:11;102433.38;;;13.90;82.66
66945;BME280;53853;51.982;5.928;2023-09-30T04:29:41;102441.53;;;13.89;82.67
66945;BME280;53853;51.982;5.928;2023-09-30T04:32:11;102439.00;;;13.87;82.70
66945;BME280;53853;51.982;5.928;2023-09-30T04:34:41;102436.44;;;13.86;82.58
66945;BME280;53853;51.982;5.928;2023-09-30T04:37:11;102434.78;;;13.85;82.70
66945;BME280;53853;51.982;5.928;2023-09-30T04:39:43;102432.22;;;13.83;82.63
66945;BME280;53853;51.982;5.928;2023-09-30T04:42:13;102437.59;;;13.83;83.15
66945;BME280;53853;51.982;5.928;2023-09-30T04:44:44;102442.94;;;13.83;82.99
66945;BME280;53853;51.982;5.928;2023-09-30T04:47:14;102440.97;;;13.85;83.01
66945;BME280;53853;51.982;5.928;2023-09-30T04:49:45;102440.13;;;13.85;82.98
66945;BME280;53853;51.982;5.928;2023-09-30T04:52:15;102449.00;;;13.85;83.09
66945;BME280;53853;51.982;5.928;2023-09-30T04:54:48;102443.66;;;13.85;83.11
66945;BME280;53853;51.982;5.928;2023-09-30T04:57:17;102443.50;;;13.87;83.21
66945;BME280;53853;51.982;5.928;2023-09-30T04:59:48;102447.91;;;13.88;83.34
66945;BME280;53853;51.982;5.928;2023-09-30T05:02:18;102446.63;;;13.92;83.12
66945;BME280;53853;51.982;5.928;2023-09-30T05:04:48;102448.09;;;13.96;83.22
66945;BME280;53853;51.982;5.928;2023-09-30T05:07:19;102454.03;;;14.00;83.50
66945;BME280;53853;51.982;5.928;2023-09-30T05:09:51;102455.72;;;14.01;83.19
66945;BME280;53853;51.982;5.928;2023-09-30T05:12:21;102459.13;;;14.03;83.20
66945;BME280;53853;51.982;5.928;2023-09-30T05:14:52;102460.84;;;14.04;83.13
66945;BME280;53853;51.982;5.928;2023-09-30T05:17:22;102460.69;;;14.05;83.13
66945;BME280;53853;51.982;5.928;2023-09-30T05:19:52;102464.09;;;14.07;83.24
66945;BME280;53853;51.982;5.928;2023-09-30T05:22:22;102468.59;;;14.07;83.03
66945;BME280;53853;51.982;5.928;2023-09-30T05:24:55;102472.13;;;14.07;83.12
66945;BME280;53853;51.982;5.928;2023-09-30T05:27:26;102477.50;;;14.07;83.11
66945;BME280;53853;51.982;5.928;2023-09-30T05:29:55;102464.78;;;14.09;83.27
66945;BME280;53853;51.982;5.928;2023-09-30T05:32:26;102465.66;;;14.10;83.05
66945;BME280;53853;51.982;5.928;2023-09-30T05:34:56;102463.97;;;14.09;82.90
66945;BME280;53853;51.982;5.928;2023-09-30T05:37:27;102462.25;;;14.08;82.68
66945;BME280;53853;51.982;5.928;2023-09-30T05:40:00;102467.59;;;14.08;82.74
66945;BME280;53853;51.982;5.928;2023-09-30T05:42:32;102462.25;;;14.08;82.69
66945;BME280;53853;51.982;5.928;2023-09-30T05:45:03;102467.75;;;14.06;82.75
66945;BME280;53853;51.982;5.928;2023-09-30T05:47:33;102467.75;;;14.06;82.90
66945;BME280;53853;51.982;5.928;2023-09-30T05:50:03;102465.78;;;14.08;82.93
66945;BME280;53853;51.982;5.928;2023-09-30T05:52:34;102471.88;;;14.10;82.68
66945;BME280;53853;51.982;5.928;2023-09-30T05:55:07;102473.72;;;14.10;82.40
66945;BME280;53853;51.982;5.928;2023-09-30T05:57:37;102478.19;;;14.09;82.56
66945;BME280;53853;51.982;5.928;2023-09-30T06:00:12;102473.84;;;14.08;82.20
66945;BME280;53853;51.982;5.928;2023-09-30T06:02:47;102470.16;;;14.09;82.56
66945;BME280;53853;51.982;5.928;2023-09-30T06:05:18;102469.31;;;14.09;82.38
66945;BME280;53853;51.982;5.928;2023-09-30T06:07:49;102473.84;;;14.08;82.58
66945;BME280;53853;51.982;5.928;2023-09-30T06:10:23;102472.13;;;14.07;82.33
66945;BME280;53853;51.982;5.928;2023-09-30T06:12:53;102477.75;;;14.04;82.76
66945;BME280;53853;51.982;5.928;2023-09-30T06:15:25;102481.41;;;14.03;83.02
66945;BME280;53853;51.982;5.928;2023-09-30T06:17:56;102472.53;;;14.03;82.81
66945;BME280;53853;51.982;5.928;2023-09-30T06:20:27;102476.03;;;14.03;83.14
66945;BME280;53853;51.982;5.928;2023-09-30T06:22:57;102468.88;;;14.04;83.15
66945;BME280;53853;51.982;5.928;2023-09-30T06:25:30;102475.91;;;14.05;83.34
66945;BME280;53853;51.982;5.928;2023-09-30T06:28:00;102475.78;;;14.06;83.37
66945;BME280;53853;51.982;5.928;2023-09-30T06:30:30;102471.16;;;14.08;83.32
66945;BME280;53853;51.982;5.928;2023-09-30T06:33:01;102475.25;;;14.12;83.23
66945;BME280;53853;51.982;5.928;2023-09-30T06:35:31;102473.28;;;14.14;82.99
66945;BME280;53853;51.982;5.928;2023-09-30T06:38:05;102475.00;;;14.16;83.05
66945;BME280;53853;51.982;5.928;2023-09-30T06:40:38;102480.09;;;14.19;83.19
66945;BME280;53853;51.982;5.928;2023-09-30T06:43:09;102488.00;;;14.20;83.15
66945;BME280;53853;51.982;5.928;2023-09-30T06:45:42;102483.22;;;14.24;82.85
66945;BME280;53853;51.982;5.928;2023-09-30T06:48:13;102493.53;;;14.28;82.93
66945;BME280;53853;51.982;5.928;2023-09-30T06:50:47;102497.66;;;14.32;82.96
66945;BME280;53853;51.982;5.928;2023-09-30T06:53:19;102513.50;;;14.36;82.82
66945;BME280;53853;51.982;5.928;2023-09-30T06:55:53;102512.34;;;14.38;82.67
66945;BME280;53853;51.982;5.928;2023-09-30T06:58:23;102517.59;;;14.40;82.70
66945;BME280;53853;51.982;5.928;2023-09-30T07:00:53;102521.00;;;14.42;82.57
66945;BME280;53853;51.982;5.928;2023-09-30T07:03:23;102505.63;;;14.44;82.97
66945;BME280;53853;51.982;5.928;2023-09-30T07:05:53;102517.94;;;14.46;82.69
66945;BME280;53853;51.982;5.928;2023-09-30T07:08:27;102526.41;;;14.52;82.74
66945;BME280;53853;51.982;5.928;2023-09-30T07:11:01;102520.78;;;14.55;82.65
66945;BME280;53853;51.982;5.928;2023-09-30T07:13:32;102525.13;;;14.56;82.77
66945;BME280;53853;51.982;5.928;2023-09-30T07:16:02;102531.00;;;14.61;82.90
66945;BME280;53853;51.982;5.928;2023-09-30T07:18:32;102537.78;;;14.65;82.53
66945;BME280;53853;51.982;5.928;2023-09-30T07:21:02;102544.47;;;14.71;82.65
66945;BME280;53853;51.982;5.928;2023-09-30T07:23:32;102545.88;;;14.75;82.68
66945;BME280;53853;51.982;5.928;2023-09-30T07:26:04;102560.59;;;14.80;82.82
66945;BME280;53853;51.982;5.928;2023-09-30T07:28:34;102550.28;;;14.85;82.83
66945;BME280;53853;51.982;5.928;2023-09-30T07:31:04;102552.44;;;14.92;82.45
66945;BME280;53853;51.982;5.928;2023-09-30T07:33:34;102556.41;;;14.97;82.48
66945;BME280;53853;51.982;5.928;2023-09-30T07:36:05;102557.69;;;15.03;82.67
66945;BME280;53853;51.982;5.928;2023-09-30T07:38:35;102560.53;;;15.11;82.45
66945;BME280;53853;51.982;5.928;2023-09-30T07:41:07;102562.81;;;15.16;82.41
66945;BME280;53853;51.982;5.928;2023-09-30T07:43:37;102564.09;;;15.21;82.62
66945;BME280;53853;51.982;5.928;2023-09-30T07:46:07;102565.22;;;15.29;82.32
66945;BME280;53853;51.982;5.928;2023-09-30T07:48:37;102567.50;;;15.33;82.12
66945;BME280;53853;51.982;5.928;2023-09-30T07:51:07;102570.66;;;15.38;82.25
66945;BME280;53853;51.982;5.928;2023-09-30T07:53:40;102570.06;;;15.45;82.45
66945;BME280;53853;51.982;5.928;2023-09-30T07:56:12;102578.44;;;15.51;82.33
66945;BME280;53853;51.982;5.928;2023-09-30T07:58:42;102577.16;;;15.55;82.25
66945;BME280;53853;51.982;5.928;2023-09-30T08:01:12;102580.28;;;15.61;82.01
66945;BME280;53853;51.982;5.928;2023-09-30T08:03:42;102580.56;;;15.67;82.17
66945;BME280;53853;51.982;5.928;2023-09-30T08:06:12;102583.41;;;15.75;82.20
66945;BME280;53853;51.982;5.928;2023-09-30T08:08:42;102591.91;;;15.81;82.08
66945;BME280;53853;51.982;5.928;2023-09-30T08:11:15;102587.69;;;15.88;81.87
66945;BME280;53853;51.982;5.928;2023-09-30T08:13:45;102594.47;;;15.92;81.67
66945;BME280;53853;51.982;5.928;2023-09-30T08:16:15;102584.97;;;15.98;81.48
66945;BME280;53853;51.982;5.928;2023-09-30T08:18:45;102582.72;;;16.03;81.41
66945;BME280;53853;51.982;5.928;2023-09-30T08:21:15;102566.97;;;16.08;81.38
66945;BME280;53853;51.982;5.928;2023-09-30T08:23:45;102576.47;;;16.12;81.25
66945;BME280;53853;51.982;5.928;2023-09-30T08:26:18;102570.66;;;16.17;80.80
66945;BME280;53853;51.982;5.928;2023-09-30T08:28:48;102567.69;;;16.20;80.62
66945;BME280;53853;51.982;5.928;2023-09-30T08:31:18;102565.56;;;16.23;80.42
66945;BME280;53853;51.982;5.928;2023-09-30T08:33:48;102575.44;;;16.33;81.02
66945;BME280;53853;51.982;5.928;2023-09-30T08:36:18;102566.66;;;16.40;81.15
66945;BME280;53853;51.982;5.928;2023-09-30T08:38:48;102552.63;;;16.46;81.08
66945;BME280;53853;51.982;5.928;2023-09-30T08:41:28;102552.72;;;16.55;81.00
66945;BME280;53853;51.982;5.928;2023-09-30T08:44:01;102545.03;;;16.60;81.16
66945;BME280;53853;51.982;5.928;2023-09-30T08:46:32;102553.38;;;16.66;80.71
66945;BME280;53853;51.982;5.928;2023-09-30T08:49:04;102560.84;;;16.73;80.63
66945;BME280;53853;51.982;5.928;2023-09-30T08:51:35;102555.03;;;16.77;80.27
66945;BME280;53853;51.982;5.928;2023-09-30T08:54:06;102555.56;;;16.81;80.19
66945;BME280;53853;51.982;5.928;2023-09-30T08:56:41;102565.06;;;16.85;80.01
66945;BME280;53853;51.982;5.928;2023-09-30T08:59:14;102570.03;;;16.90;79.54
66945;BME280;53853;51.982;5.928;2023-09-30T09:01:44;102569.59;;;16.94;79.01
66945;BME280;53853;51.982;5.928;2023-09-30T09:04:14;102578.06;;;16.99;78.91
66945;BME280;53853;51.982;5.928;2023-09-30T09:06:44;102566.84;;;17.04;79.27
66945;BME280;53853;51.982;5.928;2023-09-30T09:09:14;102561.00;;;17.09;79.07
66945;BME280;53853;51.982;5.928;2023-09-30T09:11:49;102556.00;;;17.14;79.30
66945;BME280;53853;51.982;5.928;2023-09-30T09:14:19;102562.63;;;17.19;79.24
66945;BME280;53853;51.982;5.928;2023-09-30T09:16:55;102554.09;;;17.24;79.33
66945;BME280;53853;51.982;5.928;2023-09-30T09:19:25;102560.56;;;17.31;79.50
66945;BME280;53853;51.982;5.928;2023-09-30T09:21:56;102566.19;;;17.38;79.40
66945;BME280;53853;51.982;5.928;2023-09-30T09:24:30;102564.91;;;17.42;78.96
66945;BME280;53853;51.982;5.928;2023-09-30T09:27:09;102573.50;;;17.46;78.87
66945;BME280;53853;51.982;5.928;2023-09-30T09:29:40;102578.59;;;17.49;78.49
66945;BME280;53853;51.982;5.928;2023-09-30T09:32:12;102572.91;;;17.52;78.39
66945;BME280;53853;51.982;5.928;2023-09-30T09:34:43;102579.69;;;17.56;77.50
66945;BME280;53853;51.982;5.928;2023-09-30T09:37:14;102587.16;;;17.62;77.22
66945;BME280;53853;51.982;5.928;2023-09-30T09:39:54;102588.25;;;17.69;76.31
66945;BME280;53853;51.982;5.928;2023-09-30T09:42:29;102603.97;;;17.74;76.57
66945;BME280;53853;51.982;5.928;2023-09-30T09:45:01;102616.00;;;17.80;75.46
66945;BME280;53853;51.982;5.928;2023-09-30T09:47:33;102609.25;;;17.84;75.76
66945;BME280;53853;51.982;5.928;2023-09-30T09:50:04;102608.00;;;17.88;75.71
66945;BME280;53853;51.982;5.928;2023-09-30T09:52:35;102606.50;;;17.93;76.00
66945;BME280;53853;51.982;5.928;2023-09-30T09:55:07;102601.53;;;17.99;75.07
66945;BME280;53853;51.982;5.928;2023-09-30T09:57:41;102598.19;;;18.05;75.35
66945;BME280;53853;51.982;5.928;2023-09-30T10:00:12;102608.50;;;18.09;74.14
66945;BME280;53853;51.982;5.928;2023-09-30T10:02:45;102611.75;;;18.13;73.46
66945;BME280;53853;51.982;5.928;2023-09-30T10:05:16;102608.44;;;18.19;74.22
66945;BME280;53853;51.982;5.928;2023-09-30T10:07:51;102605.94;;;18.26;74.68
66945;BME280;53853;51.982;5.928;2023-09-30T10:10:23;102603.63;;;18.31;74.81
66945;BME280;53853;51.982;5.928;2023-09-30T10:12:56;102604.69;;;18.38;74.86
66945;BME280;53853;51.982;5.928;2023-09-30T10:15:39;102607.44;;;18.46;74.10
66945;BME280;53853;51.982;5.928;2023-09-30T10:18:12;102626.69;;;18.52;73.50
66945;BME280;53853;51.982;5.928;2023-09-30T10:20:43;102626.22;;;18.56;73.03
66945;BME280;53853;51.982;5.928;2023-09-30T10:23:22;102615.63;;;18.63;73.56
66945;BME280;53853;51.982;5.928;2023-09-30T10:25:52;102615.66;;;18.71;73.87
66945;BME280;53853;51.982;5.928;2023-09-30T10:28:42;102608.63;;;18.78;74.25
66945;BME280;53853;51.982;5.928;2023-09-30T10:31:16;102590.94;;;18.84;74.66
66945;BME280;53853;51.982;5.928;2023-09-30T10:34:21;102593.72;;;18.92;74.28
66945;BME280;53853;51.982;5.928;2023-09-30T10:36:52;102581.72;;;18.95;73.24
66945;BME280;53853;51.982;5.928;2023-09-30T10:39:53;102578.19;;;19.03;72.89
66945;BME280;53853;51.982;5.928;2023-09-30T10:42:48;102576.00;;;19.06;72.19
66945;BME280;53853;51.982;5.928;2023-09-30T10:45:44;102570.44;;;19.08;71.02
66945;BME280;53853;51.982;5.928;2023-09-30T10:48:34;102575.00;;;19.07;70.92
66945;BME280;53853;51.982;5.928;2023-09-30T10:51:12;102574.69;;;19.10;70.83
66945;BME280;53853;51.982;5.928;2023-09-30T10:53:49;102560.84;;;19.13;71.24
66945;BME280;53853;51.982;5.928;2023-09-30T10:56:25;102572.00;;;19.18;68.99
66945;BME280;53853;51.982;5.928;2023-09-30T10:59:00;102567.97;;;19.23;68.38
66945;BME280;53853;51.982;5.928;2023-09-30T11:01:35;102564.78;;;19.27;67.44
66945;BME280;53853;51.982;5.928;2023-09-30T11:04:05;102566.13;;;19.31;66.79
66945;BME280;53853;51.982;5.928;2023-09-30T11:06:39;102575.59;;;19.35;63.28
66945;BME280;53853;51.982;5.928;2023-09-30T11:09:09;102569.88;;;19.47;63.90
66945;BME280;53853;51.982;5.928;2023-09-30T11:11:41;102564.97;;;19.59;62.68
66945;BME280;53853;51.982;5.928;2023-09-30T11:14:19;102572.78;;;19.70;63.52
66945;BME280;53853;51.982;5.928;2023-09-30T11:16:50;102574.81;;;19.76;64.03
66945;BME280;53853;51.982;5.928;2023-09-30T11:19:20;102567.41;;;19.78;60.50
66945;BME280;53853;51.982;5.928;2023-09-30T11:21:52;102569.25;;;19.78;62.25
66945;BME280;53853;51.982;5.928;2023-09-30T11:24:24;102575.00;;;19.83;63.73
66945;BME280;53853;51.982;5.928;2023-09-30T11:26:56;102573.47;;;19.88;64.22
66945;BME280;53853;51.982;5.928;2023-09-30T11:29:25;102573.81;;;19.94;62.61
66945;BME280;53853;51.982;5.928;2023-09-30T11:31:58;102565.00;;;20.00;63.24
66945;BME280;53853;51.982;5.928;2023-09-30T11:34:33;102566.88;;;20.07;63.81
66945;BME280;53853;51.982;5.928;2023-09-30T11:37:04;102571.59;;;20.14;63.23
66945;BME280;53853;51.982;5.928;2023-09-30T11:39:37;102563.81;;;20.19;63.51
66945;BME280;53853;51.982;5.928;2023-09-30T11:42:16;102556.03;;;20.24;62.03
66945;BME280;53853;51.982;5.928;2023-09-30T11:44:47;102552.13;;;20.26;58.59
66945;BME280;53853;51.982;5.928;2023-09-30T11:47:29;102536.56;;;20.29;55.29
66945;BME280;53853;51.982;5.928;2023-09-30T11:50:01;102539.59;;;20.34;58.07
66945;BME280;53853;51.982;5.928;2023-09-30T11:52:31;102538.03;;;20.39;55.42
66945;BME280;53853;51.982;5.928;2023-09-30T11:55:06;102539.06;;;20.47;56.06
66945;BME280;53853;51.982;5.928;2023-09-30T11:57:39;102535.47;;;20.54;56.51
66945;BME280;53853;51.982;5.928;2023-09-30T12:00:10;102535.28;;;20.64;55.55
66945;BME280;53853;51.982;5.928;2023-09-30T12:02:46;102528.13;;;20.71;56.36
66945;BME280;53853;51.982;5.928;2023-09-30T12:05:16;102531.66;;;20.80;54.18
66945;BME280;53853;51.982;5.928;2023-09-30T12:07:49;102530.78;;;20.88;55.60
66945;BME280;53853;51.982;5.928;2023-09-30T12:10:19;102539.53;;;20.98;53.00
66945;BME280;53853;51.982;5.928;2023-09-30T12:12:49;102546.78;;;21.06;54.10
66945;BME280;53853;51.982;5.928;2023-09-30T12:15:19;102546.06;;;21.12;51.75
66945;BME280;53853;51.982;5.928;2023-09-30T12:17:52;102548.59;;;21.13;49.50
66945;BME280;53853;51.982;5.928;2023-09-30T12:20:22;102537.94;;;21.12;50.43
66945;BME280;53853;51.982;5.928;2023-09-30T12:22:52;102534.03;;;21.14;51.31
66945;BME280;53853;51.982;5.928;2023-09-30T12:25:22;102532.47;;;21.20;52.72
66945;BME280;53853;51.982;5.928;2023-09-30T12:27:52;102525.31;;;21.27;53.46
66945;BME280;53853;51.982;5.928;2023-09-30T12:30:22;102532.41;;;21.28;53.24
66945;BME280;53853;51.982;5.928;2023-09-30T12:32:56;102529.50;;;21.30;54.10
66945;BME280;53853;51.982;5.928;2023-09-30T12:35:26;102528.19;;;21.26;54.01
66945;BME280;53853;51.982;5.928;2023-09-30T12:37:56;102525.19;;;21.21;54.21
66945;BME280;53853;51.982;5.928;2023-09-30T12:40:26;102509.63;;;21.14;53.58
66945;BME280;53853;51.982;5.928;2023-09-30T12:42:56;102506.41;;;21.11;52.69
66945;BME280;53853;51.982;5.928;2023-09-30T12:45:27;102495.09;;;21.07;52.63
66945;BME280;53853;51.982;5.928;2023-09-30T12:47:59;102495.09;;;21.07;53.62
66945;BME280;53853;51.982;5.928;2023-09-30T12:50:29;102490.91;;;21.05;52.80
66945;BME280;53853;51.982;5.928;2023-09-30T12:52:59;102488.91;;;20.98;50.71
66945;BME280;53853;51.982;5.928;2023-09-30T12:55:29;102488.03;;;20.98;52.23
66945;BME280;53853;51.982;5.928;2023-09-30T12:57:59;102491.44;;;21.00;52.16
66945;BME280;53853;51.982;5.928;2023-09-30T13:00:30;102486.84;;;21.01;51.61
66945;BME280;53853;51.982;5.928;2023-09-30T13:03:04;102499.38;;;21.02;51.95
66945;BME280;53853;51.982;5.928;2023-09-30T13:05:34;102494.16;;;21.00;51.14
66945;BME280;53853;51.982;5.928;2023-09-30T13:08:05;102496.34;;;20.96;51.20
66945;BME280;53853;51.982;5.928;2023-09-30T13:10:35;102498.56;;;20.93;51.66
66945;BME280;53853;51.982;5.928;2023-09-30T13:13:05;102496.41;;;20.88;51.42